sensor_id;sensor_type;location;lat;lon;timestamp;P1;durP1;ratioP1;P2;durP2;ratioP2
57893;SDS011;43710;47.460;19.034;2023-05-19T03:57:17;9.43;;;6.00;;
57893;SDS011;43710;47.460;19.034;2023-05-19T04:00:21;7.50;;;5.68;;
57893;SDS011;43710;47.460;19.034;2023-05-19T04:03:24;11.70;;;5.70;;
57893;SDS011;43710;47.460;19.034;2023-05-19T04:06:27;10.18;;;5.57;;
57893;SDS011;43710;47.460;19.034;2023-05-19T04:09:30;9.82;;;5.62;;
57893;SDS011;43710;47.460;19.034;2023-05-19T04:15:38;9.80;;;5.25;;
57893;SDS011;43710;47.460;19.034;2023-05-19T04:18:42;8.90;;;4.80;;
57893;SDS011;43710;47.460;19.034;2023-05-19T04:21:47;9.63;;;5.43;;
57893;SDS011;43710;47.460;19.034;2023-05-19T04:24:49;7.53;;;5.28;;
57893;SDS011;43710;47.460;19.034;2023-05-19T04:27:53;5.45;;;4.47;;
57893;SDS011;43710;47.460;19.034;2023-05-19T04:30:58;6.30;;;4.63;;
57893;SDS011;43710;47.460;19.034;2023-05-19T04:34:01;6.35;;;5.20;;
57893;SDS011;43710;47.460;19.034;2023-05-19T04:37:03;8.32;;;4.90;;
57893;SDS011;43710;47.460;19.034;2023-05-19T04:40:08;8.77;;;4.80;;
57893;SDS011;43710;47.460;19.034;2023-05-19T04:43:12;11.00;;;5.25;;
57893;SDS011;43710;47.460;19.034;2023-05-19T04:46:14;10.93;;;5.60;;
57893;SDS011;43710;47.460;19.034;2023-05-19T04:49:17;7.97;;;5.25;;
57893;SDS011;43710;47.460;19.034;2023-05-19T04:52:20;6.85;;;5.60;;
57893;SDS011;43710;47.460;19.034;2023-05-19T04:55:24;9.48;;;5.18;;
57893;SDS011;43710;47.460;19.034;2023-05-19T04:58:27;9.48;;;5.65;;
57893;SDS011;43710;47.460;19.034;2023-05-19T05:01:29;7.47;;;5.55;;
57893;SDS011;43710;47.460;19.034;2023-05-19T05:04:34;9.68;;;6.10;;
57893;SDS011;43710;47.460;19.034;2023-05-19T05:07:37;9.70;;;5.40;;
57893;SDS011;43710;47.460;19.034;2023-05-19T05:10:40;9.18;;;6.22;;
57893;SDS011;43710;47.460;19.034;2023-05-19T05:13:43;10.98;;;6.40;;
57893;SDS011;43710;47.460;19.034;2023-05-19T05:16:46;13.48;;;7.45;;
57893;SDS011;43710;47.460;19.034;2023-05-19T05:19:49;9.45;;;6.65;;
57893;SDS011;43710;47.460;19.034;2023-05-19T05:22:52;9.98;;;8.50;;
57893;SDS011;43710;47.460;19.034;2023-05-19T05:25:55;10.88;;;8.27;;
57893;SDS011;43710;47.460;19.034;2023-05-19T05:28:58;10.30;;;8.02;;
57893;SDS011;43710;47.460;19.034;2023-05-19T05:32:00;12.95;;;8.45;;
57893;SDS011;43710;47.460;19.034;2023-05-19T05:35:03;11.30;;;8.45;;
57893;SDS011;43710;47.460;19.034;2023-05-19T05:38:06;11.40;;;8.32;;
57893;SDS011;43710;47.460;19.034;2023-05-19T05:41:10;11.70;;;7.57;;
57893;SDS011;43710;47.460;19.034;2023-05-19T05:44:12;10.00;;;8.57;;
57893;SDS011;43710;47.460;19.034;2023-05-19T05:47:15;11.88;;;8.60;;
57893;SDS011;43710;47.460;19.034;2023-05-19T05:50:18;11.18;;;7.97;;
57893;SDS011;43710;47.460;19.034;2023-05-19T05:53:21;9.77;;;8.18;;
57893;SDS011;43710;47.460;19.034;2023-05-19T05:56:26;12.82;;;8.05;;
57893;SDS011;43710;47.460;19.034;2023-05-19T05:59:29;9.82;;;7.53;;
57893;SDS011;43710;47.460;19.034;2023-05-19T06:02:31;13.70;;;8.45;;
57893;SDS011;43710;47.460;19.034;2023-05-19T06:05:34;13.62;;;8.30;;
57893;SDS011;43710;47.460;19.034;2023-05-19T06:08:37;12.82;;;8.07;;
57893;SDS011;43710;47.460;19.034;2023-05-19T06:11:39;14.73;;;8.18;;
57893;SDS011;43710;47.460;19.034;2023-05-19T06:14:42;10.77;;;7.93;;
57893;SDS011;43710;47.460;19.034;2023-05-19T06:17:47;12.77;;;7.87;;
57893;SDS011;43710;47.460;19.034;2023-05-19T06:20:49;10.02;;;8.38;;
57893;SDS011;43710;47.460;19.034;2023-05-19T06:23:52;10.75;;;8.63;;
57893;SDS011;43710;47.460;19.034;2023-05-19T06:26:54;11.02;;;8.27;;
57893;SDS011;43710;47.460;19.034;2023-05-19T06:29:56;11.48;;;8.07;;
57893;SDS011;43710;47.460;19.034;2023-05-19T06:32:59;13.52;;;8.27;;
57893;SDS011;43710;47.460;19.034;2023-05-19T06:36:02;9.60;;;7.82;;
57893;SDS011;43710;47.460;19.034;2023-05-19T06:39:04;9.93;;;7.85;;
57893;SDS011;43710;47.460;19.034;2023-05-19T06:42:07;10.15;;;7.20;;
57893;SDS011;43710;47.460;19.034;2023-05-19T06:45:13;11.18;;;8.15;;
57893;SDS011;43710;47.460;19.034;2023-05-19T06:48:16;11.52;;;8.40;;
57893;SDS011;43710;47.460;19.034;2023-05-19T06:51:18;8.18;;;6.47;;
57893;SDS011;43710;47.460;19.034;2023-05-19T06:54:23;10.40;;;7.20;;
57893;SDS011;43710;47.460;19.034;2023-05-19T06:57:26;11.15;;;7.90;;
57893;SDS011;43710;47.460;19.034;2023-05-19T07:00:30;12.30;;;7.82;;
57893;SDS011;43710;47.460;19.034;2023-05-19T07:03:34;10.52;;;8.13;;
57893;SDS011;43710;47.460;19.034;2023-05-19T07:06:37;11.07;;;8.45;;
57893;SDS011;43710;47.460;19.034;2023-05-19T07:09:40;12.88;;;7.78;;
57893;SDS011;43710;47.460;19.034;2023-05-19T07:12:42;14.02;;;8.50;;
57893;SDS011;43710;47.460;19.034;2023-05-19T07:15:46;11.65;;;8.50;;
57893;SDS011;43710;47.460;19.034;2023-05-19T07:18:50;11.55;;;7.97;;
57893;SDS011;43710;47.460;19.034;2023-05-19T07:21:53;11.70;;;7.55;;
57893;SDS011;43710;47.460;19.034;2023-05-19T07:24:56;8.98;;;6.43;;
57893;SDS011;43710;47.460;19.034;2023-05-19T07:27:58;11.38;;;7.68;;
57893;SDS011;43710;47.460;19.034;2023-05-19T07:31:01;10.30;;;7.25;;
57893;SDS011;43710;47.460;19.034;2023-05-19T07:34:03;9.18;;;6.40;;
57893;SDS011;43710;47.460;19.034;2023-05-19T07:37:06;7.60;;;6.00;;
57893;SDS011;43710;47.460;19.034;2023-05-19T07:40:09;12.23;;;6.10;;
57893;SDS011;43710;47.460;19.034;2023-05-19T07:43:13;6.75;;;5.68;;
57893;SDS011;43710;47.460;19.034;2023-05-19T07:46:15;8.38;;;4.93;;
57893;SDS011;43710;47.460;19.034;2023-05-19T07:49:18;9.23;;;5.65;;
57893;SDS011;43710;47.460;19.034;2023-05-19T07:52:20;7.32;;;5.22;;
57893;SDS011;43710;47.460;19.034;2023-05-19T07:55:23;9.23;;;5.05;;
57893;SDS011;43710;47.460;19.034;2023-05-19T07:58:25;8.10;;;4.82;;
57893;SDS011;43710;47.460;19.034;2023-05-19T08:01:28;7.37;;;4.62;;
57893;SDS011;43710;47.460;19.034;2023-05-19T08:04:31;11.80;;;4.78;;
57893;SDS011;43710;47.460;19.034;2023-05-19T08:07:33;11.43;;;4.28;;
57893;SDS011;43710;47.460;19.034;2023-05-19T08:10:36;7.72;;;4.40;;
57893;SDS011;43710;47.460;19.034;2023-05-19T08:13:38;8.65;;;4.40;;
57893;SDS011;43710;47.460;19.034;2023-05-19T08:16:41;4.90;;;4.15;;
57893;SDS011;43710;47.460;19.034;2023-05-19T08:19:44;6.80;;;4.30;;
57893;SDS011;43710;47.460;19.034;2023-05-19T08:22:47;7.50;;;4.00;;
57893;SDS011;43710;47.460;19.034;2023-05-19T08:25:49;10.60;;;4.07;;
57893;SDS011;43710;47.460;19.034;2023-05-19T08:28:52;6.10;;;4.18;;
57893;SDS011;43710;47.460;19.034;2023-05-19T08:31:54;5.00;;;3.97;;
57893;SDS011;43710;47.460;19.034;2023-05-19T08:34:57;6.30;;;3.90;;
57893;SDS011;43710;47.460;19.034;2023-05-19T08:37:59;4.30;;;3.70;;
57893;SDS011;43710;47.460;19.034;2023-05-19T08:41:02;5.00;;;3.42;;
57893;SDS011;43710;47.460;19.034;2023-05-19T08:44:04;6.60;;;4.10;;
57893;SDS011;43710;47.460;19.034;2023-05-19T08:47:07;5.70;;;4.22;;
57893;SDS011;43710;47.460;19.034;2023-05-19T08:50:16;5.93;;;3.97;;
57893;SDS011;43710;47.460;19.034;2023-05-19T08:53:35;8.00;;;4.78;;
57893;SDS011;43710;47.460;19.034;2023-05-19T08:56:38;8.98;;;5.10;;
57893;SDS011;43710;47.460;19.034;2023-05-19T08:59:42;8.23;;;4.60;;
57893;SDS011;43710;47.460;19.034;2023-05-19T09:02:44;8.85;;;5.12;;
57893;SDS011;43710;47.460;19.034;2023-05-19T09:06:07;6.90;;;5.45;;
57893;SDS011;43710;47.460;19.034;2023-05-19T09:09:10;17.00;;;5.85;;
57893;SDS011;43710;47.460;19.034;2023-05-19T09:12:25;8.75;;;5.25;;
57893;SDS011;43710;47.460;19.034;2023-05-19T09:15:27;8.70;;;5.47;;
57893;SDS011;43710;47.460;19.034;2023-05-19T09:18:30;9.13;;;6.40;;
57893;SDS011;43710;47.460;19.034;2023-05-19T09:21:32;8.90;;;5.80;;
57893;SDS011;43710;47.460;19.034;2023-05-19T09:24:35;8.80;;;6.65;;
57893;SDS011;43710;47.460;19.034;2023-05-19T09:27:38;11.45;;;5.82;;
57893;SDS011;43710;47.460;19.034;2023-05-19T09:30:41;7.85;;;6.20;;
57893;SDS011;43710;47.460;19.034;2023-05-19T09:33:43;8.52;;;6.78;;
57893;SDS011;43710;47.460;19.034;2023-05-19T09:36:47;9.13;;;7.40;;
57893;SDS011;43710;47.460;19.034;2023-05-19T09:39:54;10.63;;;6.80;;
57893;SDS011;43710;47.460;19.034;2023-05-19T09:42:57;8.50;;;6.72;;
57893;SDS011;43710;47.460;19.034;2023-05-19T09:46:02;10.50;;;6.95;;
57893;SDS011;43710;47.460;19.034;2023-05-19T09:49:08;9.77;;;7.35;;
57893;SDS011;43710;47.460;19.034;2023-05-19T09:52:10;8.65;;;7.55;;
57893;SDS011;43710;47.460;19.034;2023-05-19T09:55:17;15.82;;;7.72;;
57893;SDS011;43710;47.460;19.034;2023-05-19T09:58:24;12.37;;;7.18;;
57893;SDS011;43710;47.460;19.034;2023-05-19T10:01:27;8.73;;;6.43;;
57893;SDS011;43710;47.460;19.034;2023-05-19T10:04:34;8.18;;;6.53;;
57893;SDS011;43710;47.460;19.034;2023-05-19T10:07:37;11.10;;;7.37;;
57893;SDS011;43710;47.460;19.034;2023-05-19T10:10:41;8.70;;;6.50;;
57893;SDS011;43710;47.460;19.034;2023-05-19T10:13:46;7.55;;;6.60;;
57893;SDS011;43710;47.460;19.034;2023-05-19T10:16:52;10.00;;;5.87;;
57893;SDS011;43710;47.460;19.034;2023-05-19T10:19:56;6.75;;;5.87;;
57893;SDS011;43710;47.460;19.034;2023-05-19T10:23:00;9.85;;;6.03;;
57893;SDS011;43710;47.460;19.034;2023-05-19T10:26:03;7.25;;;5.60;;
57893;SDS011;43710;47.460;19.034;2023-05-19T10:29:07;11.50;;;6.28;;
57893;SDS011;43710;47.460;19.034;2023-05-19T10:32:15;12.15;;;6.25;;
57893;SDS011;43710;47.460;19.034;2023-05-19T10:42:03;7.43;;;6.32;;
57893;SDS011;43710;47.460;19.034;2023-05-19T10:45:17;11.27;;;6.10;;
57893;SDS011;43710;47.460;19.034;2023-05-19T10:48:22;7.07;;;5.82;;
57893;SDS011;43710;47.460;19.034;2023-05-19T10:51:31;10.45;;;6.50;;
57893;SDS011;43710;47.460;19.034;2023-05-19T10:54:41;14.38;;;7.03;;
57893;SDS011;43710;47.460;19.034;2023-05-19T10:57:54;6.40;;;5.72;;
57893;SDS011;43710;47.460;19.034;2023-05-19T11:01:01;8.00;;;5.93;;
57893;SDS011;43710;47.460;19.034;2023-05-19T11:04:07;7.15;;;6.12;;
57893;SDS011;43710;47.460;19.034;2023-05-19T11:07:18;10.73;;;6.25;;
57893;SDS011;43710;47.460;19.034;2023-05-19T11:10:22;7.18;;;6.45;;
57893;SDS011;43710;47.460;19.034;2023-05-19T11:13:25;6.62;;;5.78;;
57893;SDS011;43710;47.460;19.034;2023-05-19T11:16:32;6.95;;;5.37;;
57893;SDS011;43710;47.460;19.034;2023-05-19T11:19:36;7.60;;;6.15;;
57893;SDS011;43710;47.460;19.034;2023-05-19T11:22:38;7.20;;;5.50;;
57893;SDS011;43710;47.460;19.034;2023-05-19T11:25:41;12.07;;;6.10;;
57893;SDS011;43710;47.460;19.034;2023-05-19T11:28:48;7.37;;;5.82;;
57893;SDS011;43710;47.460;19.034;2023-05-19T11:31:51;8.63;;;5.95;;
57893;SDS011;43710;47.460;19.034;2023-05-19T11:34:53;6.57;;;5.55;;
57893;SDS011;43710;47.460;19.034;2023-05-19T11:37:57;8.65;;;5.75;;
57893;SDS011;43710;47.460;19.034;2023-05-19T11:41:00;6.70;;;5.60;;
57893;SDS011;43710;47.460;19.034;2023-05-19T11:44:08;7.78;;;5.15;;
57893;SDS011;43710;47.460;19.034;2023-05-19T11:47:11;6.93;;;5.35;;
57893;SDS011;43710;47.460;19.034;2023-05-19T11:50:14;9.63;;;5.40;;
57893;SDS011;43710;47.460;19.034;2023-05-19T11:53:17;8.25;;;5.18;;
57893;SDS011;43710;47.460;19.034;2023-05-19T11:56:22;5.87;;;5.28;;
57893;SDS011;43710;47.460;19.034;2023-05-19T11:59:31;6.55;;;4.80;;
57893;SDS011;43710;47.460;19.034;2023-05-19T12:02:36;8.95;;;4.82;;
57893;SDS011;43710;47.460;19.034;2023-05-19T12:05:43;6.20;;;4.60;;
57893;SDS011;43710;47.460;19.034;2023-05-19T12:08:49;7.40;;;4.37;;
57893;SDS011;43710;47.460;19.034;2023-05-19T12:11:53;7.18;;;4.78;;
57893;SDS011;43710;47.460;19.034;2023-05-19T12:14:55;8.30;;;4.78;;
57893;SDS011;43710;47.460;19.034;2023-05-19T12:18:01;7.62;;;5.20;;
57893;SDS011;43710;47.460;19.034;2023-05-19T12:21:04;16.87;;;5.75;;
57893;SDS011;43710;47.460;19.034;2023-05-19T12:24:06;7.68;;;4.55;;
57893;SDS011;43710;47.460;19.034;2023-05-19T12:30:16;6.87;;;5.00;;
57893;SDS011;43710;47.460;19.034;2023-05-19T12:33:18;8.80;;;5.07;;
57893;SDS011;43710;47.460;19.034;2023-05-19T12:36:22;7.70;;;4.72;;
57893;SDS011;43710;47.460;19.034;2023-05-19T12:39:26;9.40;;;4.87;;
57893;SDS011;43710;47.460;19.034;2023-05-19T12:42:28;6.10;;;4.28;;
57893;SDS011;43710;47.460;19.034;2023-05-19T12:45:36;7.35;;;4.45;;
57893;SDS011;43710;47.460;19.034;2023-05-19T12:48:40;5.72;;;4.03;;
57893;SDS011;43710;47.460;19.034;2023-05-19T12:51:52;9.23;;;5.07;;
57893;SDS011;43710;47.460;19.034;2023-05-19T12:54:58;8.88;;;4.70;;
57893;SDS011;43710;47.460;19.034;2023-05-19T12:58:09;9.05;;;4.45;;
57893;SDS011;43710;47.460;19.034;2023-05-19T13:01:15;8.13;;;4.95;;
57893;SDS011;43710;47.460;19.034;2023-05-19T13:04:18;7.47;;;4.53;;
57893;SDS011;43710;47.460;19.034;2023-05-19T13:07:21;10.27;;;4.50;;
57893;SDS011;43710;47.460;19.034;2023-05-19T13:10:24;6.75;;;4.53;;
57893;SDS011;43710;47.460;19.034;2023-05-19T13:13:30;5.47;;;4.50;;
57893;SDS011;43710;47.460;19.034;2023-05-19T13:16:33;7.70;;;4.82;;
57893;SDS011;43710;47.460;19.034;2023-05-19T13:19:35;7.25;;;4.85;;
57893;SDS011;43710;47.460;19.034;2023-05-19T13:22:37;8.55;;;4.40;;
57893;SDS011;43710;47.460;19.034;2023-05-19T13:25:40;9.68;;;4.78;;
57893;SDS011;43710;47.460;19.034;2023-05-19T13:28:43;13.30;;;4.10;;
57893;SDS011;43710;47.460;19.034;2023-05-19T13:31:45;8.00;;;4.20;;
57893;SDS011;43710;47.460;19.034;2023-05-19T13:34:47;7.18;;;3.87;;
57893;SDS011;43710;47.460;19.034;2023-05-19T13:37:50;6.85;;;4.35;;
57893;SDS011;43710;47.460;19.034;2023-05-19T13:40:52;7.72;;;4.32;;
57893;SDS011;43710;47.460;19.034;2023-05-19T13:43:59;6.12;;;4.30;;
57893;SDS011;43710;47.460;19.034;2023-05-19T13:47:01;10.88;;;4.50;;
57893;SDS011;43710;47.460;19.034;2023-05-19T13:50:04;5.85;;;4.15;;
57893;SDS011;43710;47.460;19.034;2023-05-19T13:53:07;11.12;;;3.97;;
57893;SDS011;43710;47.460;19.034;2023-05-19T13:56:09;5.10;;;4.20;;
57893;SDS011;43710;47.460;19.034;2023-05-19T13:59:12;10.18;;;4.45;;
57893;SDS011;43710;47.460;19.034;2023-05-19T14:02:14;8.88;;;4.45;;
57893;SDS011;43710;47.460;19.034;2023-05-19T14:05:17;6.30;;;4.30;;
57893;SDS011;43710;47.460;19.034;2023-05-19T14:08:19;11.93;;;4.55;;
57893;SDS011;43710;47.460;19.034;2023-05-19T14:11:22;8.43;;;5.05;;
57893;SDS011;43710;47.460;19.034;2023-05-19T14:14:24;8.13;;;4.20;;
57893;SDS011;43710;47.460;19.034;2023-05-19T14:17:26;10.88;;;5.37;;
57893;SDS011;43710;47.460;19.034;2023-05-19T14:20:29;5.20;;;4.07;;
57893;SDS011;43710;47.460;19.034;2023-05-19T14:23:32;5.85;;;3.50;;
57893;SDS011;43710;47.460;19.034;2023-05-19T14:26:35;5.80;;;4.20;;
57893;SDS011;43710;47.460;19.034;2023-05-19T14:29:37;9.00;;;4.90;;
57893;SDS011;43710;47.460;19.034;2023-05-19T14:32:40;4.62;;;3.67;;
57893;SDS011;43710;47.460;19.034;2023-05-19T14:35:42;5.68;;;4.20;;
57893;SDS011;43710;47.460;19.034;2023-05-19T14:38:44;6.07;;;3.75;;
57893;SDS011;43710;47.460;19.034;2023-05-19T14:41:47;6.80;;;3.70;;
57893;SDS011;43710;47.460;19.034;2023-05-19T14:44:51;4.95;;;3.22;;
57893;SDS011;43710;47.460;19.034;2023-05-19T14:47:54;4.62;;;3.70;;
57893;SDS011;43710;47.460;19.034;2023-05-19T14:50:56;8.82;;;3.95;;
57893;SDS011;43710;47.460;19.034;2023-05-19T14:53:59;6.07;;;3.78;;
57893;SDS011;43710;47.460;19.034;2023-05-19T14:57:02;6.62;;;4.10;;
57893;SDS011;43710;47.460;19.034;2023-05-19T15:00:05;5.95;;;3.45;;
57893;SDS011;43710;47.460;19.034;2023-05-19T15:03:10;7.15;;;3.50;;
57893;SDS011;43710;47.460;19.034;2023-05-19T15:06:13;12.32;;;4.00;;
57893;SDS011;43710;47.460;19.034;2023-05-19T15:09:15;4.37;;;3.62;;
57893;SDS011;43710;47.460;19.034;2023-05-19T15:12:18;5.62;;;4.00;;
57893;SDS011;43710;47.460;19.034;2023-05-19T15:15:20;4.18;;;3.50;;
57893;SDS011;43710;47.460;19.034;2023-05-19T15:18:22;6.82;;;3.60;;
57893;SDS011;43710;47.460;19.034;2023-05-19T15:21:25;7.75;;;3.70;;
57893;SDS011;43710;47.460;19.034;2023-05-19T15:24:27;7.70;;;3.78;;
